Time;durP1;ratioP1;P1;durP2;ratioP2;P2;SDS_P1;SDS_P2;PMS_P1;PMS_P2;Temp;Humidity;BMP_temperature;BMP_pressure;BME280_temperature;BME280_humidity;BME280_pressure;Samples;Min_cycle;Max_cycle;Signal;HPM_P1;HPM_P2
2021/09/23 00:00:48;;;;;;;24.33;22.53;;;10.90;99.90;;;;;;4896540;29;20507;-72
2021/09/23 00:03:31;;;;;;;24.97;23.10;;;10.80;99.90;;;;;;4899469;29;20491;-72
2021/09/23 00:05:58;;;;;;;23.83;22.10;;;10.80;99.90;;;;;;4899142;29;20487;-71
2021/09/23 00:08:25;;;;;;;22.47;20.83;;;10.80;99.90;;;;;;4898760;29;20532;-73
2021/09/23 00:10:52;;;;;;;23.60;21.57;;;10.80;99.90;;;;;;4899345;29;20458;-72
2021/09/23 00:13:20;;;;;;;22.47;20.77;;;10.80;99.90;;;;;;4899118;29;20527;-72
2021/09/23 00:15:47;;;;;;;22.07;20.47;;;10.70;99.90;;;;;;4898979;29;20515;-72
2021/09/23 00:18:17;;;;;;;24.10;22.13;;;10.70;99.90;;;;;;4898998;29;20459;-72
2021/09/23 00:20:45;;;;;;;24.13;22.30;;;10.60;99.90;;;;;;4898741;29;20477;-72
2021/09/23 00:23:12;;;;;;;24.67;22.57;;;10.60;99.90;;;;;;4898715;29;20515;-73
2021/09/23 00:25:39;;;;;;;24.97;22.80;;;10.60;99.90;;;;;;4898790;29;20950;-71
2021/09/23 00:28:07;;;;;;;24.63;22.33;;;10.60;99.90;;;;;;4898975;29;20465;-71
2021/09/23 00:30:36;;;;;;;22.90;21.20;;;10.70;99.90;;;;;;4899064;29;20451;-72
2021/09/23 00:33:03;;;;;;;23.83;22.13;;;10.70;99.90;;;;;;4898837;29;20864;-72
2021/09/23 00:35:31;;;;;;;21.93;20.27;;;10.70;99.90;;;;;;4898629;29;20466;-72
2021/09/23 00:37:58;;;;;;;22.87;21.47;;;10.70;99.90;;;;;;4898538;29;20512;-71
2021/09/23 00:40:25;;;;;;;23.03;21.10;;;10.70;99.90;;;;;;4898542;29;20507;-72
2021/09/23 00:42:51;;;;;;;21.33;19.93;;;10.80;99.90;;;;;;4898913;29;20498;-72
2021/09/23 00:45:20;;;;;;;24.40;22.40;;;10.80;99.90;;;;;;4898636;29;20459;-72
2021/09/23 00:47:49;;;;;;;23.70;22.00;;;10.80;99.90;;;;;;4898371;29;20455;-72
2021/09/23 00:50:19;;;;;;;23.67;21.80;;;10.80;99.90;;;;;;4898495;29;20471;-73
2021/09/23 00:52:46;;;;;;;22.40;20.50;;;10.80;99.90;;;;;;4898094;29;20490;-72
2021/09/23 00:55:14;;;;;;;22.47;20.80;;;10.80;99.90;;;;;;4898339;29;20450;-72
2021/09/23 00:57:41;;;;;;;28.57;25.93;;;10.80;99.90;;;;;;4898335;29;20455;-73
2021/09/23 01:00:10;;;;;;;27.17;24.97;;;10.80;99.90;;;;;;4898316;29;20479;-72
2021/09/23 01:02:37;;;;;;;27.33;25.33;;;10.80;99.90;;;;;;4898189;29;20494;-72
2021/09/23 01:05:06;;;;;;;25.33;23.40;;;10.90;99.90;;;;;;4898083;29;20519;-72
2021/09/23 01:07:33;;;;;;;25.80;23.53;;;10.80;99.90;;;;;;4897834;29;20466;-72
2021/09/23 01:10:02;;;;;;;25.67;23.57;;;10.80;99.90;;;;;;4898304;29;20455;-72
2021/09/23 01:12:29;;;;;;;23.47;21.77;;;10.70;99.90;;;;;;4897850;29;20624;-72
2021/09/23 01:14:56;;;;;;;23.13;21.43;;;10.70;99.90;;;;;;4898079;29;20459;-72
2021/09/23 01:17:23;;;;;;;23.77;22.30;;;10.70;99.90;;;;;;4897764;29;20507;-73
2021/09/23 01:19:51;;;;;;;21.97;20.10;;;10.70;99.90;;;;;;4897927;29;20463;-73
2021/09/23 01:22:19;;;;;;;23.13;21.33;;;10.60;99.90;;;;;;4897876;29;20798;-73
2021/09/23 01:24:46;;;;;;;22.50;20.80;;;10.60;99.90;;;;;;4897532;29;20455;-72
2021/09/23 01:27:14;;;;;;;23.07;21.27;;;10.60;99.90;;;;;;4897793;29;20455;-73
2021/09/23 01:29:42;;;;;;;23.13;21.23;;;10.60;99.90;;;;;;4897681;29;20467;-71
2021/09/23 01:32:10;;;;;;;23.27;21.50;;;10.50;99.90;;;;;;4897668;29;20511;-72
2021/09/23 01:34:39;;;;;;;22.47;20.43;;;10.40;99.90;;;;;;4897469;29;20466;-72
2021/09/23 01:37:06;;;;;;;23.13;21.50;;;10.40;99.90;;;;;;4897684;29;20463;-72
2021/09/23 01:39:34;;;;;;;22.07;20.57;;;10.40;99.90;;;;;;4897616;29;20459;-72
2021/09/23 01:42:01;;;;;;;22.80;21.20;;;10.40;99.90;;;;;;4897784;29;20520;-73
2021/09/23 01:44:28;;;;;;;22.00;20.37;;;10.40;99.90;;;;;;4897653;29;20462;-73
2021/09/23 01:46:55;;;;;;;20.97;19.57;;;10.30;99.90;;;;;;4897254;29;20455;-73
2021/09/23 01:49:21;;;;;;;22.50;20.60;;;10.10;99.90;;;;;;4897595;29;20531;-72
2021/09/23 01:51:48;;;;;;;22.03;20.30;;;10.10;99.90;;;;;;4897522;29;20813;-73
2021/09/23 01:54:15;;;;;;;24.90;23.10;;;10.00;99.90;;;;;;4897140;29;20571;-72
2021/09/23 01:56:43;;;;;;;25.37;23.37;;;10.10;99.90;;;;;;4897255;29;20606;-72
2021/09/23 01:59:10;;;;;;;24.00;22.30;;;10.10;99.90;;;;;;4897265;29;20487;-72
2021/09/23 02:01:37;;;;;;;25.40;23.30;;;10.10;99.90;;;;;;4897078;29;20493;-73
2021/09/23 02:04:04;;;;;;;24.10;22.30;;;10.20;99.90;;;;;;4897218;29;20506;-73
2021/09/23 02:06:31;;;;;;;23.70;21.90;;;10.20;99.90;;;;;;4896883;29;21076;-73
2021/09/23 02:08:58;;;;;;;23.23;21.47;;;10.20;99.90;;;;;;4897058;29;20669;-73
2021/09/23 02:11:24;;;;;;;23.33;21.63;;;10.10;99.90;;;;;;4897138;29;20883;-73
2021/09/23 02:13:52;;;;;;;22.33;20.63;;;10.10;99.90;;;;;;4896790;29;20487;-73
2021/09/23 02:16:19;;;;;;;24.10;22.27;;;10.10;99.90;;;;;;4897069;29;20466;-72
2021/09/23 02:18:46;;;;;;;23.63;21.90;;;10.20;99.90;;;;;;4896845;29;20703;-73
2021/09/23 02:21:13;;;;;;;24.03;22.23;;;10.20;99.90;;;;;;4896805;29;20528;-72
2021/09/23 02:23:40;;;;;;;25.40;23.50;;;10.10;99.90;;;;;;4896177;29;21029;-72
2021/09/23 02:26:07;;;;;;;23.53;21.83;;;10.10;99.90;;;;;;4896785;29;20966;-73
2021/09/23 02:28:36;;;;;;;25.20;23.30;;;10.10;99.90;;;;;;4896764;29;20515;-73
2021/09/23 02:31:04;;;;;;;25.23;23.53;;;10.20;99.90;;;;;;4896611;29;20493;-73
2021/09/23 02:33:31;;;;;;;25.20;23.23;;;10.20;99.90;;;;;;4896189;29;21005;-74
2021/09/23 02:35:58;;;;;;;26.80;24.80;;;10.20;99.90;;;;;;4896649;29;20471;-72
2021/09/23 02:38:25;;;;;;;24.80;22.87;;;10.20;99.90;;;;;;4896434;29;20459;-71
2021/09/23 02:40:51;;;;;;;26.20;24.40;;;10.20;99.90;;;;;;4896787;29;20859;-71
2021/09/23 02:43:18;;;;;;;26.30;24.20;;;10.10;99.90;;;;;;4896545;29;20459;-73
2021/09/23 02:45:45;;;;;;;22.83;21.30;;;10.10;99.90;;;;;;4896389;29;20489;-72
2021/09/23 02:48:13;;;;;;;24.87;23.03;;;10.10;99.90;;;;;;4896376;29;20459;-72
2021/09/23 02:50:39;;;;;;;24.83;23.03;;;10.10;99.90;;;;;;4896263;29;20451;-74
2021/09/23 02:53:06;;;;;;;24.67;22.87;;;10.00;99.90;;;;;;4895891;29;20490;-74
2021/09/23 02:55:33;;;;;;;22.23;20.60;;;10.00;99.90;;;;;;4896331;29;20463;-74
2021/09/23 02:57:59;;;;;;;23.57;21.97;;;9.90;99.90;;;;;;4896075;29;20469;-74
2021/09/23 03:00:26;;;;;;;25.63;23.83;;;9.90;99.90;;;;;;4895881;29;20540;-74
2021/09/23 03:02:53;;;;;;;26.27;24.40;;;9.90;99.90;;;;;;4896118;29;20463;-73
2021/09/23 03:05:21;;;;;;;27.13;25.03;;;9.80;99.90;;;;;;4896050;29;20458;-73
2021/09/23 03:07:47;;;;;;;28.20;25.90;;;9.80;99.90;;;;;;4895753;29;20455;-73
2021/09/23 03:10:14;;;;;;;27.57;25.57;;;9.80;99.90;;;;;;4895953;29;20461;-74
2021/09/23 03:12:41;;;;;;;28.40;26.17;;;9.80;99.90;;;;;;4895995;29;20466;-73
2021/09/23 03:15:09;;;;;;;28.00;25.70;;;9.80;99.90;;;;;;4895871;29;20510;-71
2021/09/23 03:17:35;;;;;;;27.33;25.30;;;9.80;99.90;;;;;;4895761;29;20515;-73
2021/09/23 03:20:03;;;;;;;28.13;25.73;;;9.80;99.90;;;;;;4895850;29;20969;-73
2021/09/23 03:22:33;;;;;;;29.73;27.10;;;9.70;99.90;;;;;;4895892;29;20458;-73
2021/09/23 03:24:59;;;;;;;28.83;26.63;;;9.80;99.90;;;;;;4895676;29;20455;-73
2021/09/23 03:27:26;;;;;;;28.80;26.33;;;9.80;99.90;;;;;;4895570;29;20712;-73
2021/09/23 03:29:53;;;;;;;26.67;24.87;;;9.80;99.90;;;;;;4895873;29;20583;-74
2021/09/23 03:32:20;;;;;;;25.80;24.10;;;9.80;99.90;;;;;;4895929;29;20487;-70
2021/09/23 03:34:47;;;;;;;25.60;23.67;;;9.80;99.90;;;;;;4894799;29;20511;-73
2021/09/23 03:37:13;;;;;;;26.37;24.17;;;9.90;99.90;;;;;;4895562;29;20760;-73
2021/09/23 03:39:41;;;;;;;25.87;24.20;;;9.90;99.90;;;;;;4895661;29;20531;-73
2021/09/23 03:42:08;;;;;;;24.93;23.23;;;9.80;99.90;;;;;;4895431;29;20463;-74
2021/09/23 03:44:35;;;;;;;25.93;24.17;;;9.70;99.90;;;;;;4895826;29;20462;-74
2021/09/23 03:47:01;;;;;;;25.50;23.80;;;9.70;99.90;;;;;;4895788;29;20460;-73
2021/09/23 03:49:29;;;;;;;27.73;25.63;;;9.60;99.90;;;;;;4895684;29;20447;-73
2021/09/23 03:51:56;;;;;;;26.57;24.50;;;9.50;99.90;;;;;;4895725;29;20844;-73
2021/09/23 03:54:23;;;;;;;29.30;26.90;;;9.40;99.90;;;;;;4895142;29;21016;-73
2021/09/23 03:56:51;;;;;;;26.67;24.57;;;9.40;99.90;;;;;;4895746;29;20454;-73
2021/09/23 03:59:18;;;;;;;26.30;23.90;;;9.40;99.90;;;;;;4895363;29;20479;-73
2021/09/23 04:01:46;;;;;;;25.67;23.67;;;9.40;99.90;;;;;;4895148;29;20494;-73
2021/09/23 04:04:13;;;;;;;25.07;23.33;;;9.40;99.90;;;;;;4894869;29;21004;-74
2021/09/23 04:06:42;;;;;;;26.00;23.60;;;9.50;99.90;;;;;;4894803;29;20451;-74
2021/09/23 04:09:09;;;;;;;26.30;24.20;;;9.50;99.90;;;;;;4895248;29;20550;-72
2021/09/23 04:11:36;;;;;;;25.73;23.87;;;9.50;99.90;;;;;;4895047;29;20594;-72
2021/09/23 04:14:04;;;;;;;26.27;23.90;;;9.50;99.90;;;;;;4894898;29;20533;-72
2021/09/23 04:16:31;;;;;;;25.73;23.90;;;9.50;99.90;;;;;;4894787;29;20511;-72
2021/09/23 04:18:58;;;;;;;26.63;24.70;;;9.50;99.90;;;;;;4894840;29;20550;-72
2021/09/23 04:21:25;;;;;;;24.10;22.00;;;9.50;99.90;;;;;;4894955;29;20486;-72
2021/09/23 04:23:52;;;;;;;27.63;25.23;;;9.50;99.90;;;;;;4894943;29;20457;-73
2021/09/23 04:26:18;;;;;;;25.07;23.27;;;9.50;99.90;;;;;;4894742;29;20926;-73
2021/09/23 04:28:45;;;;;;;26.47;24.07;;;9.50;99.90;;;;;;4894800;29;21038;-75
2021/09/23 04:31:13;;;;;;;25.63;23.50;;;9.40;99.90;;;;;;4894701;29;20865;-73
2021/09/23 04:33:40;;;;;;;26.27;23.90;;;9.40;99.90;;;;;;4894688;29;20491;-73
2021/09/23 04:36:06;;;;;;;28.60;25.67;;;9.40;99.90;;;;;;4894594;29;20458;-73
2021/09/23 04:38:33;;;;;;;27.50;25.23;;;9.30;99.90;;;;;;4894850;29;20466;-73
2021/09/23 04:41:00;;;;;;;27.50;25.50;;;9.30;99.90;;;;;;4894516;29;20520;-74
2021/09/23 04:43:27;;;;;;;27.47;25.30;;;9.30;99.90;;;;;;4894710;29;20513;-73
2021/09/23 04:45:54;;;;;;;27.30;24.97;;;9.30;99.90;;;;;;4894552;29;20517;-73
2021/09/23 04:48:22;;;;;;;26.43;24.20;;;9.30;99.90;;;;;;4898214;29;20455;-74
2021/09/23 04:50:48;;;;;;;27.17;25.30;;;9.20;99.90;;;;;;4898011;29;21013;-72
2021/09/23 04:53:15;;;;;;;27.33;25.17;;;9.20;99.90;;;;;;4897865;29;20466;-73
2021/09/23 04:55:42;;;;;;;28.10;25.80;;;9.20;99.90;;;;;;4897800;29;20470;-72
2021/09/23 04:58:09;;;;;;;28.17;25.93;;;9.30;99.90;;;;;;4897683;29;20461;-74
2021/09/23 05:00:36;;;;;;;27.93;25.73;;;9.30;99.90;;;;;;4897791;29;20485;-74
2021/09/23 05:03:03;;;;;;;28.60;26.20;;;9.40;99.90;;;;;;4897840;29;20447;-74
2021/09/23 05:05:30;;;;;;;28.20;25.83;;;9.40;99.90;;;;;;4897576;29;20511;-74
2021/09/23 05:07:57;;;;;;;27.60;25.20;;;9.40;99.90;;;;;;4897800;29;20528;-73
2021/09/23 05:10:24;;;;;;;27.20;25.07;;;9.40;99.90;;;;;;4897658;29;20871;-75
2021/09/23 05:12:51;;;;;;;27.43;25.30;;;9.50;99.90;;;;;;4897881;29;20587;-74
2021/09/23 05:15:17;;;;;;;27.80;25.37;;;9.50;99.90;;;;;;4897448;29;20495;-75
2021/09/23 05:17:44;;;;;;;31.60;26.30;;;9.50;99.90;;;;;;4897524;29;20460;-73
2021/09/23 05:20:12;;;;;;;28.43;25.70;;;9.50;99.90;;;;;;4897409;29;20467;-72
2021/09/23 05:22:40;;;;;;;29.50;26.20;;;9.40;99.90;;;;;;4897280;29;20514;-73
2021/09/23 05:25:08;;;;;;;27.77;25.47;;;9.40;99.90;;;;;;4897592;29;20834;-73
2021/09/23 05:27:36;;;;;;;28.90;26.07;;;9.50;99.90;;;;;;4897181;29;20460;-73
2021/09/23 05:30:03;;;;;;;28.83;26.43;;;9.50;99.90;;;;;;4897119;29;20459;-73
2021/09/23 05:32:29;;;;;;;29.20;26.70;;;9.40;99.90;;;;;;4897106;29;20840;-74
2021/09/23 05:34:56;;;;;;;30.07;27.30;;;9.40;99.90;;;;;;4897113;29;20491;-75
2021/09/23 05:37:23;;;;;;;28.93;26.30;;;9.50;99.90;;;;;;4897101;29;20845;-75
2021/09/23 05:39:51;;;;;;;30.47;27.10;;;9.50;99.90;;;;;;4897324;29;20451;-74
2021/09/23 05:42:17;;;;;;;29.77;27.07;;;9.50;99.90;;;;;;4897024;29;20482;-74
2021/09/23 05:44:44;;;;;;;29.63;26.70;;;9.50;99.90;;;;;;4896927;29;20507;-74
2021/09/23 05:47:11;;;;;;;28.70;26.43;;;9.40;99.90;;;;;;4897159;29;20478;-75
2021/09/23 05:49:38;;;;;;;30.40;27.77;;;9.40;99.90;;;;;;4897206;29;20471;-75
2021/09/23 05:52:05;;;;;;;29.07;26.20;;;9.40;99.90;;;;;;4897339;29;20549;-74
2021/09/23 05:54:31;;;;;;;27.80;24.97;;;9.50;99.90;;;;;;4897136;29;20502;-75
2021/09/23 05:56:59;;;;;;;28.07;25.40;;;9.50;99.90;;;;;;4897714;29;20459;-74
2021/09/23 05:59:27;;;;;;;28.10;25.87;;;9.50;99.90;;;;;;4896509;29;20515;-75
2021/09/23 06:01:55;;;;;;;28.00;25.33;;;9.70;99.90;;;;;;4897610;29;20505;-75
2021/09/23 06:04:22;;;;;;;29.50;26.60;;;10.00;99.90;;;;;;4899814;29;20459;-74
2021/09/23 06:06:49;;;;;;;34.40;25.77;;;10.30;99.90;;;;;;4901529;29;20459;-75
2021/09/23 06:09:16;;;;;;;26.60;24.17;;;10.60;99.90;;;;;;4898348;29;20878;-76
2021/09/23 06:11:43;;;;;;;26.53;24.43;;;10.90;99.90;;;;;;4896354;29;20588;-76
2021/09/23 06:14:11;;;;;;;25.93;23.33;;;11.20;99.90;;;;;;4896216;29;20834;-76
2021/09/23 06:16:38;;;;;;;25.17;23.10;;;11.50;99.90;;;;;;4896653;29;20459;-76
2021/09/23 06:19:05;;;;;;;24.50;22.50;;;11.90;99.90;;;;;;4896622;29;20459;-76
2021/09/23 06:21:31;;;;;;;24.33;22.03;;;12.20;99.90;;;;;;4896356;29;20526;-75
2021/09/23 06:23:58;;;;;;;23.10;21.13;;;12.50;99.90;;;;;;4896311;29;20482;-73
2021/09/23 06:26:25;;;;;;;23.10;21.23;;;12.60;99.90;;;;;;4896003;29;20477;-76
2021/09/23 06:28:51;;;;;;;25.00;22.57;;;12.70;99.90;;;;;;4896423;29;20470;-75
2021/09/23 06:31:19;;;;;;;22.73;20.83;;;12.90;99.90;;;;;;4896147;29;20460;-75
2021/09/23 06:33:46;;;;;;;23.50;21.70;;;13.10;99.90;;;;;;4895832;29;20452;-73
2021/09/23 06:36:13;;;;;;;24.30;22.40;;;13.20;99.90;;;;;;4895740;29;20455;-73
2021/09/23 06:38:40;;;;;;;23.37;21.33;;;13.30;99.90;;;;;;4896068;29;20451;-71
2021/09/23 06:41:10;;;;;;;23.20;21.20;;;13.70;99.90;;;;;;4896128;29;20462;-72
2021/09/23 06:43:37;;;;;;;22.63;20.93;;;14.20;99.90;;;;;;4896135;29;20486;-75
2021/09/23 06:46:04;;;;;;;21.67;19.33;;;14.60;99.90;;;;;;4896271;29;20463;-75
2021/09/23 06:48:31;;;;;;;24.17;22.10;;;15.00;99.90;;;;;;4896002;29;20454;-76
2021/09/23 06:50:58;;;;;;;21.53;19.70;;;15.40;99.90;;;;;;4895720;29;20451;-75
2021/09/23 06:53:25;;;;;;;20.33;18.83;;;15.80;99.90;;;;;;4892698;29;20455;-73
2021/09/23 06:55:51;;;;;;;22.13;20.27;;;16.00;99.90;;;;;;4894364;29;20495;-73
2021/09/23 06:58:18;;;;;;;21.30;19.67;;;15.90;99.90;;;;;;4895065;29;20539;-74
2021/09/23 07:00:45;;;;;;;24.17;22.20;;;16.10;99.90;;;;;;4893537;29;20551;-73
2021/09/23 07:03:11;;;;;;;24.70;22.47;;;16.30;99.90;;;;;;4895692;29;20677;-73
2021/09/23 07:05:43;;;;;;;21.90;20.03;;;16.60;99.90;;;;;;4893799;29;20451;-74
2021/09/23 07:08:09;;;;;;;26.50;23.83;;;16.70;99.90;;;;;;4895496;29;20463;-73
2021/09/23 07:10:36;;;;;;;24.57;21.93;;;16.30;99.90;;;;;;4895532;29;20466;-74
2021/09/23 07:13:03;;;;;;;25.40;23.13;;;16.10;99.90;;;;;;4895711;29;20459;-74
2021/09/23 07:15:29;;;;;;;24.07;21.97;;;15.80;99.90;;;;;;4895337;29;20495;-74
2021/09/23 07:17:56;;;;;;;23.13;21.23;;;15.80;99.90;;;;;;4895541;29;20554;-74
2021/09/23 07:20:23;;;;;;;22.93;21.00;;;15.80;99.90;;;;;;4895349;29;20542;-75
2021/09/23 07:22:51;;;;;;;23.10;20.90;;;16.00;99.90;;;;;;4895604;29;20458;-74
2021/09/23 07:25:19;;;;;;;22.63;20.87;;;16.20;99.90;;;;;;4895576;29;20455;-74
2021/09/23 07:27:46;;;;;;;22.47;20.77;;;16.50;99.90;;;;;;4895249;29;20876;-75
2021/09/23 07:30:14;;;;;;;22.40;20.77;;;16.60;99.90;;;;;;4895203;29;20862;-75
2021/09/23 07:32:40;;;;;;;22.30;20.30;;;16.90;99.90;;;;;;4895173;29;20512;-74
2021/09/23 07:35:08;;;;;;;22.83;21.10;;;17.30;99.90;;;;;;4895234;29;20491;-75
2021/09/23 07:37:34;;;;;;;24.50;22.10;;;17.50;99.90;;;;;;4895442;29;20455;-74
2021/09/23 07:40:03;;;;;;;22.97;20.83;;;17.90;99.90;;;;;;4895354;29;20462;-75
2021/09/23 07:42:30;;;;;;;23.40;21.30;;;18.30;99.90;;;;;;4895002;29;20463;-75
2021/09/23 07:44:57;;;;;;;24.60;22.60;;;18.40;99.90;;;;;;4895302;29;20734;-74
2021/09/23 07:47:23;;;;;;;22.90;21.00;;;18.10;99.90;;;;;;4894977;29;20474;-73
2021/09/23 07:49:50;;;;;;;23.00;21.20;;;18.10;99.90;;;;;;4895284;29;20958;-73
2021/09/23 07:52:17;;;;;;;24.20;22.10;;;18.60;99.90;;;;;;4895021;29;21001;-73
2021/09/23 07:54:43;;;;;;;26.07;23.70;;;19.20;99.90;;;;;;4894859;29;20495;-74
2021/09/23 07:57:14;;;;;;;22.60;21.20;;;19.70;99.50;;;;;;4894934;29;20470;-74
2021/09/23 07:59:40;;;;;;;22.57;19.20;;;19.80;98.60;;;;;;4894749;29;20957;-74
2021/09/23 08:02:08;;;;;;;22.20;20.60;;;19.90;98.40;;;;;;4894974;29;20494;-74
2021/09/23 08:04:35;;;;;;;21.63;20.10;;;19.30;99.30;;;;;;4895181;29;20478;-73
2021/09/23 08:07:01;;;;;;;22.43;20.57;;;19.70;99.60;;;;;;4895086;29;20455;-74
2021/09/23 08:09:28;;;;;;;20.50;18.60;;;19.90;98.70;;;;;;4894851;29;20462;-74
2021/09/23 08:11:55;;;;;;;20.50;19.03;;;20.40;98.50;;;;;;4894970;29;20504;-74
2021/09/23 08:14:25;;;;;;;20.90;19.20;;;21.40;96.60;;;;;;4894851;29;20502;-75
2021/09/23 08:16:52;;;;;;;19.47;18.10;;;22.20;95.10;;;;;;4895014;29;20466;-74
2021/09/23 08:19:18;;;;;;;21.07;19.10;;;22.60;94.20;;;;;;4894969;29;20960;-74
2021/09/23 08:21:45;;;;;;;18.57;17.20;;;22.80;93.30;;;;;;4896130;29;20826;-74
2021/09/23 08:24:12;;;;;;;18.80;17.67;;;23.10;93.10;;;;;;4898586;29;20550;-74
2021/09/23 08:26:38;;;;;;;19.83;18.57;;;23.70;91.90;;;;;;4898571;29;20511;-74
2021/09/23 08:29:05;;;;;;;19.00;17.73;;;23.90;91.90;;;;;;4898460;29;20873;-74
2021/09/23 08:31:33;;;;;;;21.10;19.30;;;24.40;91.00;;;;;;4898191;29;20459;-74
2021/09/23 08:34:00;;;;;;;21.13;19.63;;;25.10;88.90;;;;;;4896280;29;20457;-74
2021/09/23 08:36:27;;;;;;;18.83;17.70;;;25.60;86.00;;;;;;4897963;29;20944;-74
2021/09/23 08:38:54;;;;;;;20.07;18.53;;;25.80;84.90;;;;;;4898225;29;20459;-73
2021/09/23 08:41:20;;;;;;;20.63;18.77;;;26.30;83.50;;;;;;4898280;29;20467;-75
2021/09/23 08:43:47;;;;;;;20.17;18.97;;;26.00;83.30;;;;;;4898093;29;20541;-75
2021/09/23 08:46:14;;;;;;;21.50;20.10;;;26.10;82.90;;;;;;4897950;29;20458;-74
2021/09/23 08:48:42;;;;;;;18.97;17.77;;;26.20;80.80;;;;;;4897869;29;20454;-75
2021/09/23 08:51:09;;;;;;;19.23;18.03;;;25.90;81.30;;;;;;4897913;29;20541;-74
2021/09/23 08:53:36;;;;;;;21.17;19.50;;;25.90;81.50;;;;;;4898081;29;20461;-73
2021/09/23 08:56:03;;;;;;;20.30;19.20;;;25.10;81.90;;;;;;4898015;29;20989;-73
2021/09/23 08:58:29;;;;;;;19.70;18.30;;;24.30;84.60;;;;;;4897916;29;20455;-74
2021/09/23 09:01:06;;;;;;;19.63;18.13;;;23.90;86.70;;;;;;4897350;29;20583;-74
2021/09/23 09:03:34;;;;;;;18.00;17.00;;;24.50;85.00;;;;;;4897533;29;20462;-75
2021/09/23 09:06:05;;;;;;;21.37;19.60;;;25.20;84.10;;;;;;4897408;29;20484;-73
2021/09/23 09:08:33;;;;;;;18.37;17.27;;;25.80;81.60;;;;;;4897514;29;20868;-73
2021/09/23 09:11:02;;;;;;;16.13;15.10;;;25.60;79.40;;;;;;4897242;29;20463;-75
2021/09/23 09:13:33;;;;;;;17.40;16.40;;;25.60;79.70;;;;;;4897256;29;20518;-75
2021/09/23 09:16:07;;;;;;;16.63;15.73;;;26.00;78.40;;;;;;4897130;29;20495;-74
2021/09/23 09:18:34;;;;;;;18.60;17.43;;;25.50;78.50;;;;;;4897546;29;20485;-74
2021/09/23 09:21:07;;;;;;;16.30;15.03;;;25.20;80.00;;;;;;4897228;29;20519;-74
2021/09/23 09:23:40;;;;;;;17.73;16.30;;;25.10;80.10;;;;;;4897291;29;20460;-74
2021/09/23 09:26:07;;;;;;;19.43;17.80;;;25.00;81.00;;;;;;4897514;29;20456;-73
2021/09/23 09:28:45;;;;;;;17.60;16.60;;;25.20;80.30;;;;;;4897415;29;21106;-73
2021/09/23 09:31:11;;;;;;;17.33;16.30;;;25.10;80.20;;;;;;4897197;29;20534;-73
2021/09/23 09:33:39;;;;;;;16.43;15.53;;;24.50;80.90;;;;;;4897472;29;20459;-73
2021/09/23 09:36:26;;;;;;;16.97;16.10;;;24.40;81.60;;;;;;4897274;29;20498;-73
2021/09/23 09:38:53;;;;;;;16.40;15.30;;;24.40;81.80;;;;;;4897432;29;20465;-73
2021/09/23 09:41:26;;;;;;;15.90;15.10;;;24.70;81.20;;;;;;4897380;29;20451;-73
2021/09/23 09:43:53;;;;;;;16.40;15.40;;;25.20;81.20;;;;;;4897297;29;20466;-74
2021/09/23 09:46:28;;;;;;;16.17;15.37;;;25.40;80.30;;;;;;4897017;29;20452;-74
2021/09/23 09:48:55;;;;;;;16.60;15.87;;;25.20;79.50;;;;;;4896906;29;20459;-74
2021/09/23 09:51:34;;;;;;;16.20;15.37;;;24.50;82.60;;;;;;4896923;29;20886;-74
2021/09/23 09:54:01;;;;;;;16.87;15.87;;;24.80;82.50;;;;;;4896699;29;20972;-73
2021/09/23 09:56:28;;;;;;;17.07;15.90;;;25.10;81.50;;;;;;4896837;29;20495;-74
2021/09/23 09:59:13;;;;;;;16.27;15.37;;;24.60;82.90;;;;;;4896718;29;20458;-74
2021/09/23 10:01:41;;;;;;;15.87;14.73;;;24.20;84.80;;;;;;4896388;29;20993;-74
2021/09/23 10:04:09;;;;;;;16.67;15.50;;;24.20;84.90;;;;;;4896585;29;20618;-74
2021/09/23 10:06:38;;;;;;;16.70;15.67;;;24.80;83.90;;;;;;4896655;29;20460;-73
2021/09/23 10:09:04;;;;;;;16.50;15.50;;;24.80;83.60;;;;;;4896728;29;20570;-74
2021/09/23 10:11:32;;;;;;;16.90;16.00;;;25.00;83.80;;;;;;4896401;29;20466;-74
2021/09/23 10:13:59;;;;;;;17.00;16.10;;;25.10;83.30;;;;;;4896401;29;21222;-74
2021/09/23 10:16:27;;;;;;;16.43;15.50;;;25.60;82.50;;;;;;4896122;29;20593;-74
2021/09/23 10:18:56;;;;;;;16.93;15.90;;;25.50;82.30;;;;;;4896168;29;21006;-74
2021/09/23 10:21:23;;;;;;;17.40;16.07;;;25.30;82.20;;;;;;4896339;29;20459;-74
2021/09/23 10:23:51;;;;;;;17.30;16.37;;;25.40;82.60;;;;;;4896614;29;20826;-74
2021/09/23 10:26:23;;;;;;;16.50;15.37;;;25.40;82.90;;;;;;4896374;29;20463;-74
2021/09/23 10:28:52;;;;;;;17.17;16.17;;;25.40;81.90;;;;;;4896326;29;20463;-74
2021/09/23 10:31:20;;;;;;;15.90;15.20;;;25.50;81.20;;;;;;4896292;29;20459;-74
2021/09/23 10:33:48;;;;;;;17.63;16.70;;;25.90;81.40;;;;;;4896130;29;20824;-73
2021/09/23 10:36:16;;;;;;;15.30;14.60;;;27.20;78.30;;;;;;4895934;29;20499;-74
2021/09/23 10:38:44;;;;;;;15.73;14.63;;;27.80;76.80;;;;;;4896044;29;20462;-74
2021/09/23 10:41:14;;;;;;;17.50;16.70;;;28.00;74.10;;;;;;4895884;29;20491;-74
2021/09/23 10:43:42;;;;;;;16.73;15.70;;;28.70;72.60;;;;;;4895534;29;20455;-74
2021/09/23 10:46:12;;;;;;;16.90;16.07;;;29.50;69.90;;;;;;4895964;29;20541;-74
2021/09/23 10:48:39;;;;;;;15.77;14.90;;;30.10;67.20;;;;;;4896226;29;20911;-74
2021/09/23 10:51:07;;;;;;;16.93;16.17;;;30.50;67.00;;;;;;4895795;29;20467;-74
2021/09/23 10:53:35;;;;;;;14.57;14.00;;;30.60;65.00;;;;;;4895873;29;20451;-74
2021/09/23 10:56:04;;;;;;;16.57;15.67;;;30.30;64.30;;;;;;4895938;29;20499;-75
2021/09/23 10:58:33;;;;;;;16.80;16.00;;;29.80;66.50;;;;;;4895645;29;20487;-74
2021/09/23 11:01:00;;;;;;;15.97;15.17;;;30.10;65.90;;;;;;4895551;29;20490;-75
2021/09/23 11:03:35;;;;;;;15.87;14.97;;;30.70;62.70;;;;;;4895636;29;20504;-74
2021/09/23 11:06:08;;;;;;;16.43;15.73;;;29.80;64.00;;;;;;4895627;29;20876;-74
2021/09/23 11:08:39;;;;;;;16.50;15.80;;;30.50;63.30;;;;;;4895956;29;20451;-74
2021/09/23 11:11:08;;;;;;;16.90;16.20;;;31.00;62.40;;;;;;4895592;29;20550;-74
2021/09/23 11:13:37;;;;;;;15.67;15.07;;;32.30;58.90;;;;;;4895528;29;21005;-75
2021/09/23 11:16:06;;;;;;;15.57;14.73;;;32.50;57.40;;;;;;4895280;29;20499;-75
2021/09/23 11:18:34;;;;;;;15.73;15.10;;;32.60;56.50;;;;;;4895299;29;20460;-73
2021/09/23 11:21:02;;;;;;;16.20;15.30;;;31.70;57.10;;;;;;4895243;29;20483;-72
2021/09/23 11:23:29;;;;;;;15.57;14.83;;;30.30;59.20;;;;;;4895254;29;20487;-72
2021/09/23 11:25:57;;;;;;;16.50;15.80;;;30.70;58.60;;;;;;4895251;29;20455;-72
2021/09/23 11:28:24;;;;;;;14.60;14.10;;;31.50;57.70;;;;;;4895054;29;20474;-72
2021/09/23 11:30:53;;;;;;;16.60;15.67;;;31.00;56.50;;;;;;4893653;29;20503;-73
2021/09/23 11:33:22;;;;;;;14.60;14.03;;;32.40;55.10;;;;;;4895239;29;20528;-73
2021/09/23 11:35:49;;;;;;;15.50;14.90;;;31.90;56.10;;;;;;4895269;29;20493;-73
2021/09/23 11:38:19;;;;;;;16.00;15.40;;;31.90;54.60;;;;;;4894978;29;20456;-74
2021/09/23 11:40:48;;;;;;;16.27;15.67;;;32.60;54.00;;;;;;4895198;29;20889;-74
2021/09/23 11:43:16;;;;;;;15.30;14.70;;;32.30;53.00;;;;;;4895133;29;20470;-74
2021/09/23 11:45:45;;;;;;;16.03;15.00;;;32.50;52.90;;;;;;4894927;29;20459;-73
2021/09/23 11:48:14;;;;;;;16.13;15.03;;;33.40;51.60;;;;;;4895098;29;20455;-75
2021/09/23 11:50:43;;;;;;;15.83;15.20;;;33.80;50.40;;;;;;4894914;29;20459;-75
2021/09/23 11:53:13;;;;;;;16.60;15.60;;;33.90;50.10;;;;;;4894841;29;20459;-73
2021/09/23 11:55:42;;;;;;;16.77;16.17;;;34.40;49.60;;;;;;4894884;29;20494;-73
2021/09/23 11:58:12;;;;;;;16.60;15.80;;;34.00;48.50;;;;;;4898571;29;21010;-74
2021/09/23 12:00:41;;;;;;;15.30;14.70;;;33.90;49.90;;;;;;4898537;29;20483;-74
2021/09/23 12:03:09;;;;;;;17.27;16.37;;;34.80;47.90;;;;;;4898552;29;20463;-74
2021/09/23 12:05:38;;;;;;;15.80;15.00;;;35.10;46.30;;;;;;4898849;29;20881;-74
2021/09/23 12:08:10;;;;;;;15.73;15.13;;;32.90;44.40;;;;;;4898607;29;20527;-74
2021/09/23 12:10:45;;;;;;;14.50;13.90;;;33.00;46.20;;;;;;4898512;29;20834;-74
2021/09/23 12:13:13;;;;;;;15.27;14.77;;;33.40;44.40;;;;;;4898579;29;20583;-74
2021/09/23 12:15:40;;;;;;;15.63;15.10;;;33.40;43.10;;;;;;4898546;29;20528;-73
2021/09/23 12:18:10;;;;;;;16.37;15.57;;;33.60;44.00;;;;;;4898729;29;20447;-73
2021/09/23 12:20:40;;;;;;;14.53;13.90;;;33.70;42.80;;;;;;4898751;29;20553;-73
2021/09/23 12:23:24;;;;;;;15.10;14.50;;;33.30;43.50;;;;;;4898551;29;20771;-73
2021/09/23 12:26:23;;;;;;;15.30;14.80;;;33.80;42.60;;;;;;4898525;29;20498;-73
2021/09/23 12:28:55;;;;;;;16.83;16.20;;;34.30;41.20;;;;;;4804146;29;20493;-73
2021/09/23 12:31:44;;;;;;;15.00;14.50;;;34.30;41.90;;;;;;4880948;29;20451;-73